Flugplatz Eggersdorf

Für EDCE sind keine METAR/TAF Berichte vorhanden.
Es werden die Flugwettermeldungen vom Flugplatz Berlin-Schönefeld International in 39 km Entfernung angezeigt.

Bericht für EDDB

vom 31.05. um 10:50 UTC

Wind 11 kt aus 10°

Sichtweite 10 km oder mehr

gute Sicht, keine Wolken < 5000 ft, keine CB, keine Wettererscheinungen (CAVOK)

Temperatur 20.0°C

Taupunkt 8.0°C

Luftfeuchtigkeit 46%

Luftdruck 1020 hPa

EDDB 311050Z 01011KT 340V070 CAVOK 20/08 Q1020 TEMPO 01015G25KT

Prognose für EDDB

vom 31.05. um 05:00 UTC

Zwischen 06:00 UTC und 06:00 UTC

Wind 8 kt aus 350°

Sichtweite 10 km oder mehr

keine signifikanten Wettererscheinungen

keine Wolken


Zwischen 06:00 und 09:00 UTC übergehend zu

Wind 13 kt aus 350°

Sichtweite 10 km oder mehr

keine signifikanten Wettererscheinungen

keine Wolken


Zwischen 09:00 UTC und 18:00 UTC zeitweise

Wind 15 kt aus 10° in Böen 25 kt


Zwischen 18:00 und 21:00 UTC übergehend zu

Wind 8 kt aus 10°

Sichtweite 10 km oder mehr

keine signifikanten Wettererscheinungen

keine Wolken

TAF EDDB 310500Z 3106/0106 35008KT CAVOK BECMG 3106/3109 35013KT TEMPO 3109/3118 01015G25KT BECMG 3118/3121 01008KT
Impressum